Time;durP1;ratioP1;P1;durP2;ratioP2;P2;SDS_P1;SDS_P2;PMS_P1;PMS_P2;Temp;Humidity;BMP_temperature;BMP_pressure;BME280_temperature;BME280_humidity;BME280_pressure;Samples;Min_cycle;Max_cycle;Signal;HPM_P1;HPM_P2
2022/09/25 00:01:31;;;;;;;5.53;3.37;;;11.50;99.90;;;;;;5061443;28;20290;-60
2022/09/25 00:04:01;;;;;;;7.37;3.87;;;11.50;99.90;;;;;;5060836;28;20192;-60
2022/09/25 00:06:31;;;;;;;6.20;2.80;;;11.40;99.90;;;;;;5062421;28;20200;-60
2022/09/25 00:09:01;;;;;;;7.63;3.10;;;11.40;99.90;;;;;;5066526;28;20283;-60
2022/09/25 00:11:33;;;;;;;8.63;3.10;;;11.40;99.90;;;;;;5056838;28;20215;-60
2022/09/25 00:14:02;;;;;;;9.77;3.70;;;11.40;99.90;;;;;;5060218;28;20893;-60
2022/09/25 00:16:31;;;;;;;6.93;3.17;;;11.30;99.90;;;;;;5067911;28;20254;-60
2022/09/25 00:21:51;;;;;;;5.37;2.97;;;11.30;99.90;;;;;;5059077;28;20188;-60
2022/09/25 00:24:21;;;;;;;3.50;2.90;;;11.30;99.90;;;;;;5052720;28;20199;-60
2022/09/25 00:26:49;;;;;;;7.50;3.57;;;11.20;99.90;;;;;;5060538;28;20192;-60
2022/09/25 00:29:20;;;;;;;4.53;3.33;;;11.20;99.90;;;;;;5061875;28;20254;-60
2022/09/25 00:31:48;;;;;;;5.93;3.17;;;11.10;99.90;;;;;;5056827;28;20200;-60
2022/09/25 00:34:18;;;;;;;7.03;3.23;;;11.10;99.90;;;;;;5055680;28;20207;-60
2022/09/25 00:36:46;;;;;;;8.57;2.90;;;11.10;99.90;;;;;;5060562;28;20267;-60
2022/09/25 00:39:15;;;;;;;4.37;3.00;;;11.00;99.90;;;;;;5060372;28;20223;-60
2022/09/25 00:41:44;;;;;;;3.30;3.00;;;11.00;99.90;;;;;;5052946;28;20220;-60
2022/09/25 00:44:55;;;;;;;7.73;3.17;;;10.90;99.90;;;;;;5056408;28;20740;-60
2022/09/25 00:47:49;;;;;;;11.47;3.37;;;10.90;99.90;;;;;;5053281;28;20678;-60
2022/09/25 00:50:26;;;;;;;6.27;3.20;;;10.90;99.90;;;;;;5053747;28;20259;-61
2022/09/25 00:52:58;;;;;;;9.50;3.20;;;10.80;99.90;;;;;;5057724;28;20220;-60
2022/09/25 00:55:26;;;;;;;10.57;3.43;;;10.80;99.90;;;;;;5054318;28;20861;-60
2022/09/25 00:57:57;;;;;;;4.97;3.00;;;10.80;99.90;;;;;;5055092;28;20563;-60
2022/09/25 01:00:26;;;;;;;7.17;3.23;;;10.80;99.90;;;;;;5050106;28;20232;-60
2022/09/25 01:02:56;;;;;;;10.67;3.87;;;10.70;99.90;;;;;;5084417;28;20214;-60
2022/09/25 01:05:28;;;;;;;5.37;3.10;;;10.70;99.90;;;;;;5055732;28;20200;-60
2022/09/25 01:07:59;;;;;;;10.20;3.07;;;10.70;99.90;;;;;;5057210;28;20234;-60
2022/09/25 01:10:29;;;;;;;5.50;3.10;;;10.60;99.90;;;;;;5054675;28;20330;-61
2022/09/25 01:12:59;;;;;;;6.60;3.10;;;10.60;99.90;;;;;;5057600;28;20200;-61
2022/09/25 01:15:35;;;;;;;7.87;2.93;;;10.60;99.90;;;;;;5057914;28;20666;-61
2022/09/25 01:18:15;;;;;;;12.57;3.20;;;10.60;99.90;;;;;;5059619;28;20200;-60
2022/09/25 01:21:09;;;;;;;4.73;2.77;;;10.50;99.90;;;;;;5053273;28;20786;-60
2022/09/25 01:24:06;;;;;;;6.97;2.80;;;10.50;99.90;;;;;;5046525;28;20986;-61
2022/09/25 01:27:01;;;;;;;9.60;3.20;;;10.40;99.90;;;;;;5047529;28;20729;-61
2022/09/25 01:29:37;;;;;;;8.20;3.07;;;10.40;99.90;;;;;;5049196;28;20293;-61
2022/09/25 01:32:13;;;;;;;5.53;3.23;;;10.40;99.90;;;;;;5051488;28;20191;-61
2022/09/25 01:34:49;;;;;;;5.73;3.07;;;10.30;99.90;;;;;;5053569;28;20678;-61
2022/09/25 01:37:24;;;;;;;3.30;3.00;;;10.20;99.90;;;;;;5048123;28;20620;-61
2022/09/25 01:40:00;;;;;;;8.57;3.20;;;10.10;99.90;;;;;;5057284;28;20642;-61
2022/09/25 01:42:35;;;;;;;6.97;3.37;;;10.10;99.90;;;;;;5054685;28;20285;-61
2022/09/25 01:45:09;;;;;;;6.03;3.23;;;10.10;99.90;;;;;;5054019;28;20613;-61
2022/09/25 01:47:38;;;;;;;7.90;3.50;;;10.00;99.90;;;;;;5056065;28;20319;-60
2022/09/25 01:50:12;;;;;;;6.57;3.50;;;10.00;99.90;;;;;;5056142;28;20189;-60
2022/09/25 01:52:44;;;;;;;4.57;4.03;;;10.00;99.90;;;;;;5057775;28;22381;-61
2022/09/25 01:55:20;;;;;;;9.87;3.77;;;10.00;99.90;;;;;;5049262;28;20200;-61
2022/09/25 01:57:53;;;;;;;8.17;3.97;;;10.00;99.90;;;;;;5048427;28;20195;-61
2022/09/25 02:00:25;;;;;;;4.20;3.50;;;9.90;99.90;;;;;;5046237;28;20832;-61
2022/09/25 02:02:57;;;;;;;7.83;3.50;;;9.90;99.90;;;;;;5052942;28;20216;-61
2022/09/25 02:05:30;;;;;;;3.83;3.50;;;9.90;99.90;;;;;;5050924;28;20268;-61
2022/09/25 02:08:03;;;;;;;8.87;4.03;;;9.80;99.90;;;;;;5054587;28;20196;-61
2022/09/25 02:10:36;;;;;;;6.17;3.90;;;9.80;99.90;;;;;;5054174;28;20227;-61
2022/09/25 02:13:09;;;;;;;6.57;3.47;;;9.80;99.90;;;;;;5085102;28;20656;-61
2022/09/25 02:15:42;;;;;;;7.23;3.53;;;9.80;99.90;;;;;;5054021;28;20195;-61
2022/09/25 02:21:05;;;;;;;6.27;3.83;;;9.70;99.90;;;;;;5057248;28;20204;-61
2022/09/25 02:23:44;;;;;;;7.57;3.90;;;9.70;99.90;;;;;;5056944;28;21044;-61
2022/09/25 02:26:18;;;;;;;7.03;3.97;;;9.60;99.90;;;;;;5056526;28;20662;-61
2022/09/25 02:28:48;;;;;;;6.20;4.30;;;9.60;99.90;;;;;;5060533;28;20803;-61
2022/09/25 02:31:18;;;;;;;4.60;3.70;;;9.50;99.90;;;;;;5054108;28;20360;-61
2022/09/25 02:33:47;;;;;;;6.30;3.63;;;9.50;99.90;;;;;;5051723;28;20227;-61
2022/09/25 02:36:20;;;;;;;7.03;4.07;;;9.50;99.90;;;;;;5058645;28;20235;-61
2022/09/25 02:38:52;;;;;;;6.63;3.90;;;9.50;99.90;;;;;;5052076;28;21096;-61
2022/09/25 02:41:34;;;;;;;4.47;4.00;;;9.40;99.90;;;;;;5059077;28;20203;-61
2022/09/25 02:44:17;;;;;;;5.53;4.07;;;9.40;99.90;;;;;;5058598;28;20311;-61
2022/09/25 02:46:59;;;;;;;8.77;4.30;;;9.40;99.90;;;;;;5055626;28;20746;-61
2022/09/25 02:49:39;;;;;;;7.30;4.30;;;9.40;99.90;;;;;;5065693;28;20551;-61
2022/09/25 02:52:12;;;;;;;6.90;3.93;;;9.30;99.90;;;;;;5062444;28;20661;-61
2022/09/25 02:54:46;;;;;;;4.20;3.63;;;9.30;99.90;;;;;;5064201;28;20198;-61
2022/09/25 02:57:21;;;;;;;3.70;3.37;;;9.20;99.90;;;;;;5050807;28;20579;-60
2022/09/25 02:59:54;;;;;;;4.60;3.33;;;9.20;99.90;;;;;;5061048;28;20895;-61
2022/09/25 03:02:27;;;;;;;6.77;3.50;;;9.10;99.90;;;;;;5062543;28;20271;-60
2022/09/25 03:04:59;;;;;;;4.53;3.80;;;9.00;99.90;;;;;;5061158;28;20429;-60
2022/09/25 03:07:27;;;;;;;6.93;4.00;;;9.00;99.90;;;;;;5062699;28;20786;-61
2022/09/25 03:09:57;;;;;;;6.07;4.23;;;9.00;99.90;;;;;;5053670;28;20215;-61
2022/09/25 03:12:26;;;;;;;6.30;4.43;;;9.00;99.90;;;;;;5059659;28;20200;-61
2022/09/25 03:14:55;;;;;;;5.30;4.80;;;9.00;99.90;;;;;;5048785;28;20192;-61
2022/09/25 03:17:24;;;;;;;11.87;5.00;;;9.00;99.90;;;;;;5055326;28;20215;-61
2022/09/25 03:19:53;;;;;;;9.57;5.07;;;9.00;99.90;;;;;;5060345;28;20196;-61
2022/09/25 03:22:21;;;;;;;7.40;4.53;;;9.00;99.90;;;;;;5052944;28;20200;-61
2022/09/25 03:24:50;;;;;;;7.07;3.87;;;9.00;99.90;;;;;;5051220;28;20204;-61
2022/09/25 03:27:19;;;;;;;7.43;4.07;;;8.90;99.90;;;;;;5053414;28;20216;-61
2022/09/25 03:29:49;;;;;;;6.30;3.40;;;8.90;99.90;;;;;;5056780;28;20196;-61
2022/09/25 03:32:18;;;;;;;6.60;4.20;;;8.80;99.90;;;;;;5064036;28;20207;-61
2022/09/25 03:34:49;;;;;;;4.13;3.83;;;8.80;99.90;;;;;;5058466;28;20905;-61
2022/09/25 03:37:17;;;;;;;4.30;3.57;;;8.70;99.90;;;;;;5057694;28;20192;-60
2022/09/25 03:39:46;;;;;;;4.97;4.13;;;8.70;99.90;;;;;;5061425;28;20192;-61
2022/09/25 03:42:14;;;;;;;7.70;4.13;;;8.60;99.90;;;;;;5060341;28;20238;-61
2022/09/25 03:44:43;;;;;;;4.50;4.10;;;8.60;99.90;;;;;;5056213;28;20219;-61
2022/09/25 03:47:11;;;;;;;4.40;3.90;;;8.50;99.90;;;;;;5057448;28;20227;-60
2022/09/25 03:49:40;;;;;;;7.13;4.10;;;8.50;99.90;;;;;;5061167;28;20184;-61
2022/09/25 03:52:11;;;;;;;5.73;4.47;;;8.40;99.90;;;;;;5059424;28;20196;-61
2022/09/25 03:54:39;;;;;;;7.67;4.50;;;8.40;99.90;;;;;;5052665;28;20284;-61
2022/09/25 03:57:11;;;;;;;6.27;4.50;;;8.40;99.90;;;;;;5055419;28;20199;-61
2022/09/25 03:59:41;;;;;;;6.30;4.40;;;8.40;99.90;;;;;;5054782;28;20227;-61
2022/09/25 04:02:09;;;;;;;4.47;4.17;;;8.40;99.90;;;;;;5060000;28;20196;-61
2022/09/25 04:04:38;;;;;;;4.43;4.10;;;8.30;99.90;;;;;;5062929;28;20248;-61
2022/09/25 04:07:07;;;;;;;5.37;4.20;;;8.30;99.90;;;;;;5060468;28;20185;-61
2022/09/25 04:09:37;;;;;;;5.00;4.50;;;8.20;99.90;;;;;;5061505;28;20197;-61
2022/09/25 04:12:07;;;;;;;5.33;4.17;;;8.20;99.90;;;;;;5059547;28;20188;-61
2022/09/25 04:14:36;;;;;;;5.07;3.67;;;8.20;99.90;;;;;;5057679;28;20619;-61
2022/09/25 04:17:04;;;;;;;5.33;4.60;;;8.20;99.90;;;;;;5054531;28;20198;-60
2022/09/25 04:19:33;;;;;;;10.33;5.27;;;8.10;99.90;;;;;;5065030;28;20192;-61
2022/09/25 04:22:01;;;;;;;8.73;5.00;;;8.20;99.90;;;;;;5063587;28;20188;-61
2022/09/25 04:24:48;;;;;;;9.10;5.30;;;8.20;99.90;;;;;;5058093;28;20243;-61
2022/09/25 04:27:19;;;;;;;7.93;4.73;;;8.20;99.90;;;;;;5060695;28;20192;-61
2022/09/25 04:29:49;;;;;;;6.83;5.17;;;8.20;99.90;;;;;;5057585;28;20200;-60
2022/09/25 04:35:04;;;;;;;5.50;4.30;;;8.20;99.90;;;;;;5092384;28;20196;-61
2022/09/25 04:37:32;;;;;;;4.77;3.83;;;8.20;99.90;;;;;;5061295;28;20567;-60
2022/09/25 04:40:01;;;;;;;4.50;4.10;;;8.10;99.90;;;;;;5054397;28;20191;-61
2022/09/25 04:42:33;;;;;;;4.50;4.10;;;8.10;99.90;;;;;;5056274;28;20204;-61
2022/09/25 04:45:01;;;;;;;6.13;4.30;;;8.00;99.90;;;;;;5051058;28;20219;-60
2022/09/25 04:47:30;;;;;;;4.53;4.10;;;8.00;99.90;;;;;;5052680;28;20563;-61
2022/09/25 04:49:58;;;;;;;5.77;4.37;;;8.00;99.90;;;;;;5049341;28;20192;-60
2022/09/25 04:52:27;;;;;;;6.17;4.40;;;7.90;99.90;;;;;;5053930;28;20204;-61
2022/09/25 04:54:55;;;;;;;5.33;4.53;;;7.90;99.90;;;;;;5070231;28;20187;-61
2022/09/25 04:57:25;;;;;;;9.80;4.40;;;7.90;99.90;;;;;;5056422;28;20203;-61
2022/09/25 05:00:17;;;;;;;5.00;4.60;;;7.90;99.90;;;;;;5056920;28;20235;-60
2022/09/25 05:02:46;;;;;;;5.47;4.53;;;7.90;99.90;;;;;;5055040;28;20213;-61
2022/09/25 05:05:15;;;;;;;12.07;4.43;;;7.90;99.90;;;;;;5054495;28;20297;-60
2022/09/25 05:07:51;;;;;;;8.53;5.00;;;7.90;99.90;;;;;;5055266;28;20207;-61
2022/09/25 05:10:20;;;;;;;5.30;4.80;;;7.90;99.90;;;;;;5060023;28;20734;-60
2022/09/25 05:12:55;;;;;;;7.23;5.20;;;7.90;99.90;;;;;;5067053;28;20188;-60
2022/09/25 05:15:26;;;;;;;8.63;4.83;;;7.90;99.90;;;;;;5060081;28;20656;-61
2022/09/25 05:18:00;;;;;;;6.53;5.43;;;7.90;99.90;;;;;;5062219;28;20192;-60
2022/09/25 05:20:29;;;;;;;9.77;5.23;;;7.90;99.90;;;;;;5059618;28;20219;-61
2022/09/25 05:22:59;;;;;;;12.07;5.30;;;7.90;99.90;;;;;;5062145;28;20619;-61
2022/09/25 05:25:27;;;;;;;4.90;4.50;;;7.90;99.90;;;;;;5060451;28;20276;-61
2022/09/25 05:27:59;;;;;;;5.90;5.30;;;7.90;99.90;;;;;;5055921;28;20376;-61
2022/09/25 05:30:30;;;;;;;5.90;4.90;;;7.90;99.90;;;;;;5059011;28;20196;-61
2022/09/25 05:32:59;;;;;;;8.60;5.47;;;7.90;99.90;;;;;;5055272;28;20738;-60
2022/09/25 05:35:29;;;;;;;6.50;5.90;;;7.90;99.90;;;;;;5058671;28;20196;-60
2022/09/25 05:37:58;;;;;;;7.17;6.07;;;7.90;99.90;;;;;;5077747;27;20203;-61
2022/09/25 05:40:27;;;;;;;7.07;5.67;;;8.00;99.90;;;;;;5054400;28;20204;-61
2022/09/25 05:42:55;;;;;;;8.50;5.87;;;8.00;99.90;;;;;;5055082;28;20195;-61
2022/09/25 05:45:24;;;;;;;7.63;5.60;;;7.90;99.90;;;;;;5050394;28;20224;-61
2022/09/25 05:48:06;;;;;;;8.47;6.40;;;7.90;99.90;;;;;;5055328;28;20193;-60
2022/09/25 05:50:35;;;;;;;7.27;6.13;;;7.90;99.90;;;;;;5059677;28;20184;-61
2022/09/25 05:53:05;;;;;;;8.63;6.80;;;7.90;99.90;;;;;;5051725;28;20690;-60
2022/09/25 05:55:33;;;;;;;18.40;10.60;;;7.90;99.90;;;;;;5056736;28;20195;-60
2022/09/25 05:58:02;;;;;;;24.07;15.00;;;7.90;99.90;;;;;;5051450;28;20208;-61
2022/09/25 06:00:32;;;;;;;27.97;15.80;;;7.90;99.90;;;;;;5052623;28;20228;-60
2022/09/25 06:03:01;;;;;;;24.80;13.00;;;7.90;99.90;;;;;;5053619;28;20201;-61
2022/09/25 06:05:31;;;;;;;35.77;20.33;;;7.90;99.90;;;;;;5057096;28;20837;-61
2022/09/25 06:08:00;;;;;;;35.97;21.50;;;7.90;99.90;;;;;;5062537;28;20199;-61
2022/09/25 06:10:29;;;;;;;18.87;12.10;;;8.00;99.90;;;;;;5060929;28;20199;-61
2022/09/25 06:12:58;;;;;;;12.97;10.33;;;8.00;99.90;;;;;;5051744;28;20200;-61
2022/09/25 06:15:28;;;;;;;15.97;9.30;;;8.10;99.90;;;;;;5050283;28;20196;-61
2022/09/25 06:17:57;;;;;;;16.60;11.23;;;8.10;99.90;;;;;;5051750;28;20189;-60
2022/09/25 06:20:28;;;;;;;32.27;19.77;;;8.30;99.90;;;;;;5056431;28;20544;-60
2022/09/25 06:22:58;;;;;;;62.03;31.97;;;8.40;99.90;;;;;;5054084;28;20196;-61
2022/09/25 06:25:31;;;;;;;41.43;20.97;;;8.50;99.90;;;;;;5057328;28;20828;-61
2022/09/25 06:28:01;;;;;;;90.37;41.33;;;8.60;99.90;;;;;;5055117;28;20207;-60
2022/09/25 06:30:34;;;;;;;135.40;65.43;;;8.60;99.90;;;;;;5056052;28;20290;-60
2022/09/25 06:33:06;;;;;;;112.03;56.50;;;8.70;99.90;;;;;;5056086;28;20188;-61
2022/09/25 06:35:34;;;;;;;34.90;21.57;;;8.70;99.90;;;;;;5061346;28;20289;-60
2022/09/25 06:38:04;;;;;;;21.60;13.50;;;8.80;99.90;;;;;;5055557;28;20203;-61
2022/09/25 06:40:33;;;;;;;22.90;11.00;;;8.80;99.90;;;;;;5061589;28;20195;-61
2022/09/25 06:43:03;;;;;;;17.93;9.57;;;8.90;99.90;;;;;;5057402;28;20188;-61
2022/09/25 06:45:33;;;;;;;17.27;9.00;;;9.00;99.90;;;;;;5061364;28;20220;-61
2022/09/25 06:48:04;;;;;;;16.77;10.07;;;9.10;99.90;;;;;;5054349;28;20219;-61
2022/09/25 06:50:39;;;;;;;17.00;9.50;;;9.10;99.90;;;;;;5050352;28;20189;-61
2022/09/25 06:53:09;;;;;;;16.47;10.17;;;9.20;99.90;;;;;;5058598;28;20195;-61
2022/09/25 06:55:38;;;;;;;18.40;11.17;;;9.30;99.90;;;;;;5094004;27;20250;-61
2022/09/25 06:58:10;;;;;;;17.63;11.57;;;9.40;99.90;;;;;;5054271;28;20222;-61
2022/09/25 07:00:39;;;;;;;14.37;9.67;;;9.60;99.90;;;;;;5089097;28;20226;-61
2022/09/25 07:05:53;;;;;;;16.60;9.07;;;10.20;99.90;;;;;;5062535;28;20203;-62
2022/09/25 07:08:23;;;;;;;15.90;9.07;;;10.40;99.90;;;;;;5058273;28;20196;-61
2022/09/25 07:10:53;;;;;;;23.93;9.03;;;10.70;99.90;;;;;;5058290;28;20215;-61
2022/09/25 07:13:26;;;;;;;16.03;8.63;;;10.90;99.90;;;;;;5057601;28;20200;-61
2022/09/25 07:15:56;;;;;;;14.07;7.80;;;11.10;99.90;;;;;;5060924;28;20809;-61
2022/09/25 07:18:26;;;;;;;14.43;7.73;;;11.20;99.90;;;;;;5058196;28;20794;-61
2022/09/25 07:20:59;;;;;;;17.30;7.67;;;11.40;99.90;;;;;;5061343;28;20208;-61
2022/09/25 07:23:32;;;;;;;10.90;7.50;;;11.50;99.90;;;;;;5052984;28;20192;-61
2022/09/25 07:26:05;;;;;;;13.50;7.13;;;11.70;99.90;;;;;;5061728;28;22314;-61
2022/09/25 07:28:35;;;;;;;11.67;6.40;;;11.80;99.90;;;;;;5060751;28;20187;-61
2022/09/25 07:31:22;;;;;;;8.13;6.23;;;12.00;99.90;;;;;;5060330;28;20187;-61
2022/09/25 07:33:51;;;;;;;6.37;5.70;;;12.20;99.90;;;;;;5060964;28;20229;-61
2022/09/25 07:36:20;;;;;;;11.77;6.47;;;12.40;99.90;;;;;;5058870;28;20208;-61
2022/09/25 07:38:53;;;;;;;6.63;5.67;;;12.60;99.90;;;;;;5064230;28;20769;-61
2022/09/25 07:41:22;;;;;;;9.83;5.30;;;12.70;99.90;;;;;;5045443;28;20199;-61
2022/09/25 07:43:52;;;;;;;6.57;4.80;;;12.90;99.90;;;;;;5052585;28;20685;-61
2022/09/25 07:46:43;;;;;;;5.60;4.37;;;13.10;99.90;;;;;;5051026;28;20235;-61
2022/09/25 07:49:11;;;;;;;8.67;4.27;;;13.40;99.90;;;;;;5059062;28;20250;-62
2022/09/25 07:51:40;;;;;;;6.07;3.70;;;13.70;99.90;;;;;;5062821;28;20196;-62
2022/09/25 07:54:09;;;;;;;6.57;3.77;;;14.00;99.90;;;;;;5058650;28;20200;-61
2022/09/25 07:56:38;;;;;;;5.00;3.30;;;14.20;99.90;;;;;;5048414;28;20189;-61
2022/09/25 07:59:06;;;;;;;6.20;3.00;;;14.50;99.90;;;;;;5049788;28;20217;-61
2022/09/25 08:01:35;;;;;;;8.70;2.83;;;14.70;99.90;;;;;;5059261;28;20738;-61
2022/09/25 08:04:10;;;;;;;6.83;2.73;;;14.90;99.90;;;;;;5061881;28;20590;-61
2022/09/25 08:06:39;;;;;;;5.37;2.77;;;15.00;99.90;;;;;;5061437;28;20278;-61
2022/09/25 08:09:10;;;;;;;6.67;2.20;;;15.10;99.90;;;;;;5059310;28;20338;-61
2022/09/25 08:11:38;;;;;;;6.73;2.97;;;15.30;99.90;;;;;;5063708;28;20224;-61
2022/09/25 08:14:07;;;;;;;5.90;2.80;;;15.40;99.90;;;;;;5056057;28;20584;-61
2022/09/25 08:16:35;;;;;;;6.67;2.50;;;15.40;99.90;;;;;;5054005;28;20193;-61
2022/09/25 08:19:04;;;;;;;5.27;2.43;;;15.50;99.90;;;;;;5052592;28;20196;-61
2022/09/25 08:21:35;;;;;;;3.23;1.90;;;15.60;99.90;;;;;;5059092;28;20407;-61
2022/09/25 08:24:04;;;;;;;3.63;2.13;;;15.70;99.90;;;;;;5054457;28;20204;-61
2022/09/25 08:26:34;;;;;;;7.37;2.43;;;15.70;99.90;;;;;;5057061;28;20209;-61
2022/09/25 08:29:02;;;;;;;4.90;2.40;;;15.90;99.90;;;;;;5060638;28;20210;-61
2022/09/25 08:31:31;;;;;;;4.43;2.30;;;16.00;99.90;;;;;;5063352;28;20209;-61
2022/09/25 08:33:59;;;;;;;8.47;3.00;;;16.00;99.90;;;;;;5060160;28;20199;-61
2022/09/25 08:36:49;;;;;;;4.00;2.30;;;16.00;99.90;;;;;;5061554;28;20197;-61
2022/09/25 08:39:18;;;;;;;2.33;2.10;;;16.00;99.90;;;;;;5062199;28;20196;-61
2022/09/25 08:41:51;;;;;;;2.70;1.60;;;16.00;99.90;;;;;;5056416;28;20207;-61
2022/09/25 08:44:26;;;;;;;2.90;1.60;;;16.10;99.90;;;;;;5083687;28;20194;-61
2022/09/25 08:49:51;;;;;;;3.70;2.07;;;16.30;99.90;;;;;;5056359;28;20195;-61
2022/09/25 08:52:21;;;;;;;3.87;2.50;;;16.50;99.90;;;;;;5049794;28;20551;-61
2022/09/25 08:54:51;;;;;;;2.50;1.70;;;16.60;99.90;;;;;;5055048;28;20197;-61
2022/09/25 08:57:30;;;;;;;2.07;1.87;;;16.70;99.90;;;;;;5064569;28;20199;-61
2022/09/25 09:00:02;;;;;;;6.73;2.20;;;16.70;99.90;;;;;;5055493;28;20234;-61
2022/09/25 09:02:38;;;;;;;8.50;2.43;;;16.60;99.90;;;;;;5056908;28;20200;-61
2022/09/25 09:05:15;;;;;;;3.90;1.80;;;16.70;99.90;;;;;;5056464;28;20189;-61
2022/09/25 09:07:47;;;;;;;4.37;2.00;;;16.70;99.90;;;;;;5057378;28;20211;-61
2022/09/25 09:10:26;;;;;;;6.27;2.57;;;16.90;99.90;;;;;;5056710;28;20211;-61
2022/09/25 09:13:00;;;;;;;3.63;2.70;;;17.00;99.90;;;;;;5059637;28;20218;-61
2022/09/25 09:15:40;;;;;;;2.93;2.20;;;17.00;99.90;;;;;;5059016;28;20188;-61
2022/09/25 09:18:18;;;;;;;6.70;2.80;;;16.90;99.90;;;;;;5055108;28;20292;-61
2022/09/25 09:20:52;;;;;;;5.20;2.63;;;17.10;99.90;;;;;;5059874;28;20207;-61
2022/09/25 09:23:23;;;;;;;2.53;2.27;;;17.30;99.90;;;;;;5053675;28;20203;-61
2022/09/25 09:26:01;;;;;;;9.30;2.60;;;17.30;99.90;;;;;;5061409;28;20208;-61
2022/09/25 09:28:49;;;;;;;26.53;9.03;;;17.20;99.90;;;;;;5056291;28;20227;-62
2022/09/25 09:31:23;;;;;;;6.70;3.13;;;17.00;99.90;;;;;;5053272;28;20215;-63
2022/09/25 09:33:58;;;;;;;16.83;5.60;;;16.80;99.90;;;;;;5060119;28;20288;-63
2022/09/25 09:36:34;;;;;;;6.03;3.50;;;16.70;99.90;;;;;;5062745;28;20195;-63
2022/09/25 09:39:11;;;;;;;8.87;2.50;;;16.70;99.90;;;;;;5059847;28;20207;-62
2022/09/25 09:41:53;;;;;;;5.60;3.20;;;16.90;99.90;;;;;;5063595;28;20188;-62
2022/09/25 09:44:49;;;;;;;4.20;2.17;;;17.00;99.90;;;;;;5059472;28;20200;-62
2022/09/25 09:47:38;;;;;;;8.27;2.47;;;17.00;99.90;;;;;;5060929;28;20216;-58
2022/09/25 09:50:19;;;;;;;3.53;2.30;;;17.20;99.90;;;;;;5060288;28;20204;-58
2022/09/25 09:52:52;;;;;;;6.57;1.90;;;17.30;99.90;;;;;;5056001;28;20201;-58
2022/09/25 09:55:26;;;;;;;4.97;2.07;;;17.50;99.90;;;;;;5053651;28;20224;-57
2022/09/25 09:57:59;;;;;;;5.00;2.20;;;17.70;99.90;;;;;;5092510;28;20196;-58
2022/09/25 10:00:29;;;;;;;8.57;2.43;;;17.70;99.90;;;;;;5055607;28;20232;-57
2022/09/25 10:03:13;;;;;;;4.67;2.50;;;17.60;99.90;;;;;;5054515;28;20846;-58
2022/09/25 10:05:47;;;;;;;3.60;2.30;;;17.40;99.90;;;;;;5089588;28;20223;-58
2022/09/25 10:08:17;;;;;;;4.73;2.17;;;17.20;99.90;;;;;;5048410;28;20221;-58
2022/09/25 10:10:52;;;;;;;3.60;2.17;;;17.00;99.90;;;;;;5060860;28;20185;-58
2022/09/25 10:13:23;;;;;;;2.90;2.10;;;16.80;99.90;;;;;;5044591;28;20216;-57
2022/09/25 10:15:59;;;;;;;3.70;2.50;;;16.60;99.90;;;;;;5055537;28;20196;-57
2022/09/25 10:18:35;;;;;;;2.00;1.60;;;16.60;99.90;;;;;;5066384;28;20253;-57
2022/09/25 10:21:10;;;;;;;2.57;1.80;;;16.80;99.90;;;;;;5051113;28;20197;-57
2022/09/25 10:23:41;;;;;;;3.67;1.63;;;17.10;99.90;;;;;;5054621;28;20196;-58
2022/09/25 10:26:24;;;;;;;3.07;1.90;;;17.40;99.90;;;;;;5056641;28;20211;-58
2022/09/25 10:28:55;;;;;;;4.47;1.93;;;17.50;99.90;;;;;;5087749;28;20228;-58
2022/09/25 10:31:29;;;;;;;2.43;2.13;;;17.70;99.90;;;;;;5060649;28;20196;-58
2022/09/25 10:34:06;;;;;;;5.47;2.23;;;18.00;99.90;;;;;;5054656;28;20192;-58
2022/09/25 10:36:40;;;;;;;1.93;1.70;;;18.30;99.90;;;;;;5048184;28;20236;-57
2022/09/25 10:39:27;;;;;;;2.17;1.70;;;18.30;99.90;;;;;;5062250;28;20196;-58
2022/09/25 10:42:38;;;;;;;4.40;1.77;;;18.10;99.90;;;;;;5054599;28;20203;-58
2022/09/25 10:45:26;;;;;;;3.27;1.70;;;18.30;99.90;;;;;;5050418;28;20208;-58
2022/09/25 10:50:43;;;;;;;4.47;1.77;;;18.40;99.90;;;;;;5055395;28;20196;-57
2022/09/25 10:53:28;;;;;;;2.03;1.70;;;18.70;99.90;;;;;;5060729;28;20200;-58
2022/09/25 10:56:03;;;;;;;2.90;1.60;;;18.80;99.90;;;;;;5052883;28;20281;-58
2022/09/25 10:58:40;;;;;;;3.10;1.63;;;18.60;99.90;;;;;;5056338;28;20207;-58
2022/09/25 11:01:12;;;;;;;2.00;1.23;;;18.80;99.90;;;;;;5051995;28;20188;-58
2022/09/25 11:03:49;;;;;;;1.40;1.30;;;18.90;99.90;;;;;;5053659;28;20208;-58
2022/09/25 11:06:21;;;;;;;1.43;1.33;;;19.10;99.90;;;;;;5055243;28;20185;-57
2022/09/25 11:09:02;;;;;;;2.67;1.77;;;19.20;99.90;;;;;;5049932;28;20593;-58
2022/09/25 11:11:32;;;;;;;1.20;1.13;;;19.30;99.90;;;;;;5064573;28;20203;-58
2022/09/25 11:14:04;;;;;;;1.37;1.30;;;19.20;99.90;;;;;;5062176;28;20202;-57
2022/09/25 11:16:51;;;;;;;2.27;1.30;;;18.90;99.90;;;;;;5060081;28;20192;-57
2022/09/25 11:19:27;;;;;;;1.40;1.30;;;18.80;99.90;;;;;;5058658;28;20188;-57
2022/09/25 11:22:07;;;;;;;1.73;1.13;;;18.80;99.90;;;;;;5059162;28;20759;-57
2022/09/25 11:24:48;;;;;;;1.50;1.40;;;18.60;99.90;;;;;;5056372;28;20242;-57
2022/09/25 11:27:22;;;;;;;2.83;1.23;;;18.40;99.90;;;;;;5060435;28;20184;-57
2022/09/25 11:30:00;;;;;;;2.40;1.50;;;18.40;99.90;;;;;;5059185;28;20582;-57
2022/09/25 11:32:36;;;;;;;1.57;1.40;;;18.50;99.90;;;;;;5064483;28;20199;-57
2022/09/25 11:35:23;;;;;;;2.17;1.43;;;18.50;99.90;;;;;;5059143;28;20204;-57
2022/09/25 11:38:03;;;;;;;2.17;1.47;;;18.50;99.90;;;;;;5056464;28;20242;-57
2022/09/25 11:43:45;;;;;;;2.33;1.60;;;18.70;99.90;;;;;;5057265;28;20211;-57
2022/09/25 11:46:21;;;;;;;2.20;1.63;;;19.10;99.90;;;;;;5054668;28;20205;-57
2022/09/25 11:49:00;;;;;;;3.57;1.73;;;19.60;99.90;;;;;;5058717;28;20247;-57
2022/09/25 11:52:08;;;;;;;1.80;1.70;;;20.30;99.90;;;;;;5054858;28;20210;-57
2022/09/25 11:54:54;;;;;;;2.03;1.77;;;20.50;99.90;;;;;;5031835;28;20216;-57
2022/09/25 11:57:29;;;;;;;4.53;1.50;;;20.50;99.90;;;;;;5063932;28;20842;-58
2022/09/25 12:00:08;;;;;;;2.97;1.80;;;20.30;99.90;;;;;;5055767;28;20260;-57
2022/09/25 12:03:01;;;;;;;9.93;3.03;;;19.90;99.90;;;;;;5056560;28;20191;-58
2022/09/25 12:05:53;;;;;;;7.10;2.90;;;19.20;99.90;;;;;;5061060;28;20215;-57
2022/09/25 12:08:33;;;;;;;5.00;3.07;;;17.90;99.90;;;;;;5048473;28;20294;-58
2022/09/25 12:11:13;;;;;;;4.10;3.03;;;16.80;99.90;;;;;;5065067;28;20198;-58
2022/09/25 12:13:50;;;;;;;6.57;3.27;;;16.00;99.90;;;;;;5054127;28;20201;-58
2022/09/25 12:16:22;;;;;;;7.73;3.90;;;15.60;99.90;;;;;;5058829;28;20196;-59
2022/09/25 12:19:09;;;;;;;6.20;3.73;;;15.30;99.90;;;;;;5063877;28;20218;-59
2022/09/25 12:21:45;;;;;;;4.23;3.10;;;15.30;99.90;;;;;;5063835;28;20227;-59
2022/09/25 12:24:25;;;;;;;5.60;2.67;;;15.20;99.90;;;;;;5061991;28;20207;-59
2022/09/25 12:27:09;;;;;;;2.97;2.77;;;15.20;99.90;;;;;;5063976;28;20691;-58
2022/09/25 12:30:06;;;;;;;3.67;2.90;;;15.20;99.90;;;;;;5063703;28;20224;-58
2022/09/25 12:32:52;;;;;;;4.57;3.33;;;15.30;99.90;;;;;;5063712;28;20221;-59
2022/09/25 12:35:42;;;;;;;7.90;4.40;;;15.40;99.90;;;;;;5063448;28;20201;-58
2022/09/25 12:38:19;;;;;;;3.47;3.17;;;15.40;99.90;;;;;;5064474;28;20206;-58
2022/09/25 12:40:54;;;;;;;4.07;3.27;;;15.30;99.90;;;;;;5053730;28;20203;-58
2022/09/25 12:43:32;;;;;;;4.37;3.97;;;15.30;99.90;;;;;;5056857;28;20268;-58
2022/09/25 12:46:09;;;;;;;3.80;3.10;;;15.40;99.90;;;;;;5053292;28;20298;-59
2022/09/25 12:48:43;;;;;;;5.20;4.70;;;15.40;99.90;;;;;;5058918;28;20212;-59
2022/09/25 12:51:17;;;;;;;6.73;4.40;;;15.60;99.90;;;;;;5058655;28;20203;-59
2022/09/25 12:53:50;;;;;;;4.13;3.57;;;16.00;99.90;;;;;;5062517;28;20200;-59
2022/09/25 12:56:25;;;;;;;3.37;2.20;;;16.20;99.90;;;;;;5060277;28;20277;-58
2022/09/25 12:59:08;;;;;;;1.90;1.80;;;16.20;99.90;;;;;;5061072;28;20238;-58
2022/09/25 13:01:45;;;;;;;6.20;2.90;;;16.30;99.90;;;;;;5059718;28;20213;-58
2022/09/25 13:04:52;;;;;;;2.77;1.70;;;16.70;99.90;;;;;;5063263;28;20198;-58
2022/09/25 13:07:28;;;;;;;1.47;1.33;;;17.00;99.90;;;;;;5058500;28;20841;-59
2022/09/25 13:09:57;;;;;;;1.93;1.33;;;17.20;99.90;;;;;;5058615;28;20295;-59
2022/09/25 13:12:33;;;;;;;1.90;1.33;;;17.40;99.90;;;;;;5050016;28;20192;-58
2022/09/25 13:15:07;;;;;;;1.50;1.20;;;17.50;99.90;;;;;;5049829;28;20196;-59
2022/09/25 13:17:36;;;;;;;3.23;1.93;;;17.60;99.90;;;;;;5051547;28;20579;-59
2022/09/25 13:20:47;;;;;;;3.67;2.13;;;17.60;99.90;;;;;;5066079;28;20193;-59
2022/09/25 13:23:33;;;;;;;10.07;7.93;;;17.70;99.90;;;;;;5054022;28;20287;-60
2022/09/25 13:26:10;;;;;;;4.63;3.73;;;17.80;99.90;;;;;;5051303;28;20193;-59
2022/09/25 13:28:41;;;;;;;2.43;1.67;;;18.00;99.90;;;;;;5058167;28;20192;-58
2022/09/25 13:31:15;;;;;;;3.33;1.70;;;18.30;99.90;;;;;;5060688;28;20513;-59
2022/09/25 13:33:49;;;;;;;1.60;1.50;;;18.50;99.90;;;;;;5052372;28;20199;-59
2022/09/25 13:36:34;;;;;;;3.43;1.43;;;18.70;99.90;;;;;;5051665;28;20192;-58
2022/09/25 13:42:06;;;;;;;1.70;1.60;;;19.20;99.90;;;;;;5064116;28;20582;-59
2022/09/25 13:44:51;;;;;;;1.47;1.37;;;19.40;99.90;;;;;;5056249;28;20214;-59
2022/09/25 13:48:11;;;;;;;1.40;1.40;;;19.40;99.90;;;;;;5057899;28;20188;-59